createdAt,value
2022-12-11T00:01:52.514Z,0.37
2022-12-11T00:04:18.957Z,0.35
2022-12-11T00:06:45.412Z,0.27
2022-12-11T00:09:11.787Z,0.30
2022-12-11T00:11:38.215Z,0.35
2022-12-11T00:14:04.932Z,0.38
2022-12-11T00:16:31.340Z,0.31
2022-12-11T00:19:00.131Z,0.19
2022-12-11T00:21:26.675Z,0.22
2022-12-11T00:23:53.042Z,0.19
2022-12-11T00:26:19.455Z,0.05
2022-12-11T00:28:46.121Z,0.12
2022-12-11T00:31:12.812Z,0.20
2022-12-11T00:33:40.206Z,0.20
2022-12-11T00:36:06.632Z,0.22
2022-12-11T00:38:33.311Z,0.22
2022-12-11T00:40:59.965Z,0.09
2022-12-11T00:43:26.314Z,0.06
2022-12-11T00:45:52.826Z,0.09
2022-12-11T00:48:19.587Z,-0.04
2022-12-11T00:50:46.082Z,-0.06
2022-12-11T00:53:12.783Z,-0.07
2022-12-11T00:55:39.376Z,-0.06
2022-12-11T00:58:05.951Z,-0.01
2022-12-11T01:00:33.436Z,0.05
2022-12-11T01:03:00.038Z,0.07
2022-12-11T01:05:26.715Z,0.09
2022-12-11T01:07:53.719Z,0.12
2022-12-11T01:10:20.203Z,0.15
2022-12-11T01:12:46.929Z,0.10
2022-12-11T01:15:14.007Z,0.11
2022-12-11T01:17:42.818Z,0.17
2022-12-11T01:20:11.778Z,0.21
2022-12-11T01:22:38.236Z,0.25
2022-12-11T01:25:04.634Z,0.31
2022-12-11T01:27:31.061Z,0.35
2022-12-11T01:29:57.538Z,0.33
2022-12-11T01:32:24.110Z,0.31
2022-12-11T01:34:50.469Z,0.32
2022-12-11T01:37:17.281Z,0.35
2022-12-11T01:39:44.243Z,0.34
2022-12-11T01:42:12.837Z,0.37
2022-12-11T01:44:39.747Z,0.40
2022-12-11T01:47:08.955Z,0.43
2022-12-11T01:49:35.299Z,0.48
2022-12-11T01:52:01.676Z,0.43
2022-12-11T01:54:28.123Z,0.41
2022-12-11T01:56:54.892Z,0.18
2022-12-11T01:59:21.456Z,0.13
2022-12-11T02:01:47.901Z,0.16
2022-12-11T02:04:14.385Z,0.13
2022-12-11T02:06:40.773Z,0.14
2022-12-11T02:09:07.156Z,0.21
2022-12-11T02:11:34.771Z,0.06
2022-12-11T02:14:01.171Z,0.01
2022-12-11T02:16:29.925Z,-0.11
2022-12-11T02:18:56.339Z,-0.07
2022-12-11T02:21:23.027Z,0.00
2022-12-11T02:23:49.680Z,-0.30
2022-12-11T02:26:23.345Z,-0.31
2022-12-11T02:28:49.924Z,-0.21
2022-12-11T02:31:16.736Z,-0.11
2022-12-11T02:33:43.559Z,-0.09
2022-12-11T02:36:10.292Z,-0.07
2022-12-11T02:38:36.765Z,-0.14
2022-12-11T02:41:03.542Z,-0.03
2022-12-11T02:43:29.896Z,0.01
2022-12-11T02:45:56.734Z,0.02
2022-12-11T02:48:23.254Z,-0.03
2022-12-11T02:50:49.808Z,0.02
2022-12-11T02:53:16.479Z,0.03
2022-12-11T02:55:42.817Z,-0.03
2022-12-11T02:58:09.216Z,-0.21
2022-12-11T03:00:35.588Z,-0.24
2022-12-11T03:03:01.989Z,-0.36
2022-12-11T03:05:28.532Z,-0.33
2022-12-11T03:07:55.082Z,-0.41
2022-12-11T03:10:21.761Z,-0.36
2022-12-11T03:12:53.164Z,-0.46
2022-12-11T03:15:20.171Z,-0.52
2022-12-11T03:17:46.561Z,-0.46
2022-12-11T03:20:13.000Z,-0.52
2022-12-11T03:22:39.450Z,-0.43
2022-12-11T03:25:05.952Z,-0.33
2022-12-11T03:27:32.616Z,-0.25
2022-12-11T03:29:58.987Z,-0.17
2022-12-11T03:32:25.560Z,-0.11
2022-12-11T03:34:56.930Z,-0.09
2022-12-11T03:37:25.124Z,-0.09
2022-12-11T03:39:53.380Z,-0.09
2022-12-11T03:42:19.769Z,-0.06
2022-12-11T03:44:46.146Z,-0.06
2022-12-11T03:47:12.750Z,-0.05
2022-12-11T03:49:39.232Z,-0.05
2022-12-11T03:52:05.638Z,-0.08
2022-12-11T03:54:32.096Z,-0.10
2022-12-11T03:57:01.185Z,-0.09
2022-12-11T03:59:29.781Z,-0.12
2022-12-11T04:01:56.176Z,-0.15
2022-12-11T04:04:22.729Z,-0.19
2022-12-11T04:06:49.332Z,-0.22
2022-12-11T04:09:15.715Z,-0.27
2022-12-11T04:11:42.094Z,-0.25
2022-12-11T04:14:08.654Z,-0.27
2022-12-11T04:16:35.221Z,-0.27
2022-12-11T04:19:01.615Z,-0.33
2022-12-11T04:21:27.990Z,-0.38
2022-12-11T04:23:57.436Z,-0.62
2022-12-11T04:26:23.902Z,-0.73
2022-12-11T04:28:50.757Z,-0.69
2022-12-11T04:31:19.675Z,-0.67
2022-12-11T04:33:46.194Z,-0.69
2022-12-11T04:36:12.534Z,-0.69
2022-12-11T04:38:39.286Z,-0.74
2022-12-11T04:41:06.286Z,-0.86
2022-12-11T04:43:32.991Z,-0.91
2022-12-11T04:45:59.491Z,-1.00
2022-12-11T04:48:26.524Z,-1.05
2022-12-11T04:50:53.911Z,-1.11
2022-12-11T04:53:20.528Z,-1.19
2022-12-11T04:55:47.476Z,-1.27
2022-12-11T04:58:14.271Z,-1.37
2022-12-11T05:00:40.715Z,-1.44
2022-12-11T05:03:08.203Z,-1.50
2022-12-11T05:05:34.581Z,-1.51
2022-12-11T05:08:08.223Z,-1.51
2022-12-11T05:10:34.782Z,-1.51
2022-12-11T05:13:03.767Z,-1.51
2022-12-11T05:15:30.110Z,-1.52
2022-12-11T05:17:56.601Z,-1.53
2022-12-11T05:20:22.988Z,-1.60
2022-12-11T05:22:49.481Z,-1.70
2022-12-11T05:25:15.922Z,-1.75
2022-12-11T05:27:42.305Z,-1.83
2022-12-11T05:30:08.698Z,-1.84
2022-12-11T05:32:37.147Z,-1.85
2022-12-11T05:35:06.403Z,-1.86
2022-12-11T05:37:33.412Z,-1.86
2022-12-11T05:40:02.614Z,-1.87
2022-12-11T05:42:30.000Z,-1.90
2022-12-11T05:44:56.510Z,-1.93
2022-12-11T05:47:22.979Z,-1.97
2022-12-11T05:49:52.241Z,-2.02
2022-12-11T05:52:18.860Z,-2.08
2022-12-11T05:54:45.189Z,-2.17
2022-12-11T05:57:12.587Z,-2.20
2022-12-11T05:59:38.930Z,-2.27
2022-12-11T06:02:05.461Z,-2.29
2022-12-11T06:04:31.899Z,-2.49
2022-12-11T06:06:58.361Z,-2.58
2022-12-11T06:09:26.013Z,-2.66
2022-12-11T06:11:52.409Z,-2.67
2022-12-11T06:14:20.203Z,-2.69
2022-12-11T06:16:46.624Z,-2.71
2022-12-11T06:19:13.278Z,-2.77
2022-12-11T06:21:40.041Z,-2.89
2022-12-11T06:24:07.767Z,-2.99
2022-12-11T06:26:34.529Z,-3.07
2022-12-11T06:29:01.069Z,-3.07
2022-12-11T06:31:27.861Z,-3.06
2022-12-11T06:33:54.365Z,-3.12
2022-12-11T06:36:20.945Z,-3.15
2022-12-11T06:38:47.415Z,-3.16
2022-12-11T06:41:13.807Z,-3.18
2022-12-11T06:43:40.266Z,-3.21
2022-12-11T06:46:06.776Z,-3.23
2022-12-11T06:48:34.092Z,-3.26
2022-12-11T06:51:00.548Z,-3.30
2022-12-11T06:53:26.940Z,-3.33
2022-12-11T06:55:53.844Z,-3.34
2022-12-11T06:58:20.207Z,-3.37
2022-12-11T07:00:46.724Z,-3.40
2022-12-11T07:03:13.150Z,-3.42
2022-12-11T07:05:39.750Z,-3.42
2022-12-11T07:08:07.151Z,-3.44
2022-12-11T07:10:35.750Z,-3.48
2022-12-11T07:13:03.108Z,-3.52
2022-12-11T07:15:30.848Z,-3.52
2022-12-11T07:17:57.219Z,-3.53
2022-12-11T07:20:25.661Z,-3.55
2022-12-11T07:22:52.026Z,-3.58
2022-12-11T07:25:21.039Z,-3.56
2022-12-11T07:27:47.454Z,-3.58
2022-12-11T07:30:14.462Z,-3.62
2022-12-11T07:32:41.020Z,-3.62
2022-12-11T07:35:07.547Z,-3.63
2022-12-11T07:37:34.026Z,-3.63
2022-12-11T07:40:00.724Z,-3.63
2022-12-11T07:42:29.409Z,-3.70
2022-12-11T07:44:56.821Z,-3.73
2022-12-11T07:47:31.331Z,-3.78
2022-12-11T07:49:59.111Z,-3.83
2022-12-11T07:52:25.491Z,-3.83
2022-12-11T07:54:52.195Z,-3.82
2022-12-11T07:57:21.078Z,-3.82
2022-12-11T07:59:49.518Z,-3.81
2022-12-11T08:02:16.014Z,-3.75
2022-12-11T08:04:44.599Z,-3.70
2022-12-11T08:07:11.732Z,-3.64
2022-12-11T08:09:39.205Z,-3.57
2022-12-11T08:12:05.647Z,-3.55
2022-12-11T08:14:32.121Z,-3.50
2022-12-11T08:16:58.810Z,-3.46
2022-12-11T08:19:25.167Z,-3.40
2022-12-11T08:21:51.631Z,-3.33
2022-12-11T08:24:17.965Z,-3.25
2022-12-11T08:26:44.344Z,-3.23
2022-12-11T08:29:10.695Z,-3.20
2022-12-11T08:31:37.407Z,-3.14
2022-12-11T08:34:04.105Z,-3.09
2022-12-11T08:36:30.949Z,-3.01
2022-12-11T08:38:57.405Z,-2.97
2022-12-11T08:41:24.214Z,-2.87
2022-12-11T08:43:52.063Z,-2.82
2022-12-11T08:46:18.580Z,-2.79
2022-12-11T08:48:47.483Z,-2.74
2022-12-11T08:51:16.224Z,-2.64
2022-12-11T08:53:43.425Z,-2.49
2022-12-11T08:56:10.209Z,-2.34
2022-12-11T08:58:36.662Z,-2.26
2022-12-11T09:01:03.246Z,-2.16
2022-12-11T09:03:29.663Z,-2.10
2022-12-11T09:05:56.506Z,-2.03
2022-12-11T09:08:23.284Z,-1.97
2022-12-11T09:10:49.686Z,-1.80
2022-12-11T09:13:16.072Z,-1.61
2022-12-11T09:15:42.506Z,-1.47
2022-12-11T09:18:08.910Z,-1.43
2022-12-11T09:20:35.238Z,-1.34
2022-12-11T09:23:01.776Z,-1.26
2022-12-11T09:25:28.143Z,-1.16
2022-12-11T09:27:54.734Z,-1.05
2022-12-11T09:30:21.181Z,-1.01
2022-12-11T09:32:47.950Z,-0.94
2022-12-11T09:35:14.691Z,-0.88
2022-12-11T09:37:41.143Z,-0.81
2022-12-11T09:40:08.149Z,-0.75
2022-12-11T09:42:34.689Z,-0.69
2022-12-11T09:45:01.167Z,-0.68
2022-12-11T09:47:27.561Z,-0.63
2022-12-11T09:49:53.947Z,-0.62
2022-12-11T09:52:23.657Z,-0.52
2022-12-11T09:54:50.440Z,-0.45
2022-12-11T09:57:16.991Z,-0.35
2022-12-11T09:59:45.726Z,-0.24
2022-12-11T10:02:12.232Z,-0.13
2022-12-11T10:04:38.623Z,0.00
2022-12-11T10:07:05.004Z,0.14
2022-12-11T10:09:31.410Z,0.27
2022-12-11T10:11:57.826Z,0.36
2022-12-11T10:14:27.904Z,0.48
2022-12-11T10:16:54.550Z,0.52
2022-12-11T10:19:21.934Z,0.56
2022-12-11T10:21:48.804Z,0.38
2022-12-11T10:24:33.778Z,0.14
2022-12-11T10:27:04.075Z,0.11
2022-12-11T10:29:32.722Z,0.04
2022-12-11T10:31:59.182Z,0.02
2022-12-11T10:34:25.552Z,-0.13
2022-12-11T10:36:57.291Z,-0.39
2022-12-11T10:39:26.805Z,-0.41
2022-12-11T10:41:53.501Z,-0.44
2022-12-11T10:44:20.160Z,-0.32
2022-12-11T10:46:46.694Z,-0.36
2022-12-11T10:49:13.359Z,-0.34
2022-12-11T10:51:40.227Z,-0.29
2022-12-11T10:54:07.743Z,-0.37
2022-12-11T10:56:34.455Z,-0.20
2022-12-11T10:59:00.906Z,-0.07
2022-12-11T11:01:28.232Z,-0.16
2022-12-11T11:03:54.993Z,-0.06
2022-12-11T11:06:21.782Z,0.18
2022-12-11T11:08:48.627Z,0.08
2022-12-11T11:11:17.419Z,0.21
2022-12-11T11:13:43.849Z,0.34
2022-12-11T11:16:12.591Z,0.40
2022-12-11T11:18:39.389Z,0.49
2022-12-11T11:21:05.920Z,0.49
2022-12-11T11:23:32.317Z,0.37
2022-12-11T11:25:59.040Z,0.36
2022-12-11T11:28:25.424Z,0.17
2022-12-11T11:30:52.456Z,0.14
2022-12-11T11:33:19.085Z,0.21
2022-12-11T11:35:47.916Z,0.40
2022-12-11T11:38:14.387Z,0.45
2022-12-11T11:40:40.914Z,0.53
2022-12-11T11:43:07.258Z,0.62
2022-12-11T11:45:33.639Z,0.64
2022-12-11T11:48:11.841Z,0.83
2022-12-11T11:50:38.340Z,0.88
2022-12-11T11:53:05.187Z,0.93
2022-12-11T11:55:31.762Z,0.97
2022-12-11T11:57:59.223Z,1.01
2022-12-11T12:00:28.880Z,1.06
2022-12-11T12:02:59.713Z,1.08
2022-12-11T12:05:28.535Z,1.13
2022-12-11T12:07:55.020Z,1.11
2022-12-11T12:10:21.405Z,1.00
2022-12-11T12:12:47.780Z,1.14
2022-12-11T12:15:14.306Z,1.12
2022-12-11T12:17:40.958Z,1.19
2022-12-11T12:20:07.348Z,1.35
2022-12-11T12:22:34.217Z,1.34
2022-12-11T12:25:01.091Z,1.35
2022-12-11T12:27:51.495Z,1.38
2022-12-11T12:30:20.355Z,1.40
2022-12-11T12:32:49.220Z,1.41
2022-12-11T12:35:16.182Z,1.37
2022-12-11T12:37:42.806Z,1.29
2022-12-11T12:40:09.257Z,1.29
2022-12-11T12:42:35.652Z,0.94
2022-12-11T12:45:02.045Z,1.05
2022-12-11T12:47:28.437Z,1.11
2022-12-11T12:49:54.794Z,1.13
2022-12-11T12:52:23.529Z,1.10
2022-12-11T12:54:51.094Z,1.11
2022-12-11T12:57:17.903Z,1.19
2022-12-11T12:59:44.464Z,1.08
2022-12-11T13:02:10.967Z,1.04
2022-12-11T13:07:24.526Z,0.52
2022-12-11T13:09:50.905Z,0.55
2022-12-11T13:12:17.328Z,0.51
2022-12-11T13:14:44.033Z,0.54
2022-12-11T13:17:10.505Z,0.52
2022-12-11T13:19:42.324Z,0.54
2022-12-11T13:22:09.679Z,0.48
2022-12-11T13:24:36.320Z,0.32
2022-12-11T13:27:02.973Z,0.19
2022-12-11T13:29:29.432Z,0.11
2022-12-11T13:31:56.103Z,0.20
2022-12-11T13:34:22.526Z,0.16
2022-12-11T13:36:49.751Z,0.13
2022-12-11T13:39:17.800Z,0.00
2022-12-11T13:41:44.528Z,-0.19
2022-12-11T13:44:11.278Z,-0.31
2022-12-11T13:46:38.015Z,-0.60
2022-12-11T13:49:04.385Z,-0.75
2022-12-11T13:51:30.838Z,-0.85
2022-12-11T13:53:57.560Z,-0.70
2022-12-11T13:56:26.536Z,-0.59
2022-12-11T13:58:53.246Z,-0.47
2022-12-11T14:01:19.738Z,-0.25
2022-12-11T14:03:47.268Z,0.01
2022-12-11T14:06:18.653Z,0.23
2022-12-11T14:08:46.182Z,0.19
2022-12-11T14:11:12.550Z,-0.09
2022-12-11T14:13:39.554Z,-0.20
2022-12-11T14:16:06.244Z,-0.17
2022-12-11T14:18:32.970Z,-0.26
2022-12-11T14:21:02.419Z,-0.35
2022-12-11T14:23:29.600Z,-0.43
2022-12-11T14:25:56.207Z,-0.54
2022-12-11T14:28:22.597Z,-0.79
2022-12-11T14:30:49.322Z,-0.76
2022-12-11T14:33:16.026Z,-0.67
2022-12-11T14:35:45.149Z,-0.59
2022-12-11T14:38:14.061Z,-0.53
2022-12-11T14:40:40.544Z,-0.50
2022-12-11T14:43:07.016Z,-0.47
2022-12-11T14:45:34.606Z,-0.41
2022-12-11T14:48:01.515Z,-0.39
2022-12-11T14:50:28.953Z,-0.40
2022-12-11T14:52:55.361Z,-0.37
2022-12-11T14:55:21.707Z,-0.32
2022-12-11T14:57:50.358Z,-0.35
2022-12-11T15:00:17.102Z,-0.39
2022-12-11T15:02:43.977Z,-0.44
2022-12-11T15:05:10.456Z,-0.47
2022-12-11T15:07:36.849Z,-0.53
2022-12-11T15:10:03.400Z,-0.64
2022-12-11T15:12:29.790Z,-0.68
2022-12-11T15:14:56.631Z,-0.72
2022-12-11T15:17:23.163Z,-0.85
2022-12-11T15:19:50.957Z,-0.90
2022-12-11T15:22:17.352Z,-0.97
2022-12-11T15:24:43.771Z,-1.06
2022-12-11T15:27:11.676Z,-1.16
2022-12-11T15:29:38.007Z,-1.25
2022-12-11T15:32:04.505Z,-1.34
2022-12-11T15:34:31.089Z,-1.43
2022-12-11T15:36:57.444Z,-1.50
2022-12-11T15:39:24.014Z,-1.56
2022-12-11T15:41:50.584Z,-1.66
2022-12-11T15:44:17.203Z,-1.75
2022-12-11T15:46:44.033Z,-1.83
2022-12-11T15:49:10.424Z,-1.95
2022-12-11T15:51:42.652Z,-2.08
2022-12-11T15:54:09.756Z,-2.35
2022-12-11T15:56:36.606Z,-2.41
2022-12-11T15:59:03.171Z,-2.42
2022-12-11T16:01:29.746Z,-2.49
2022-12-11T16:04:01.702Z,-2.63
2022-12-11T16:06:31.441Z,-2.76
2022-12-11T16:08:57.892Z,-2.79
2022-12-11T16:11:24.387Z,-2.82
2022-12-11T16:13:50.790Z,-2.89
2022-12-11T16:16:17.355Z,-2.96
2022-12-11T16:18:43.847Z,-2.96
2022-12-11T16:21:10.725Z,-3.01
2022-12-11T16:23:37.116Z,-3.04
2022-12-11T16:26:03.681Z,-3.10
2022-12-11T16:28:32.519Z,-3.20
2022-12-11T16:30:59.111Z,-3.32
2022-12-11T16:33:25.497Z,-3.40
2022-12-11T16:35:52.408Z,-3.47
2022-12-11T16:38:18.818Z,-3.62
2022-12-11T16:40:45.714Z,-3.71
2022-12-11T16:43:14.573Z,-3.67
2022-12-11T16:45:40.955Z,-3.63
2022-12-11T16:48:07.352Z,-3.65
2022-12-11T16:50:34.381Z,-3.67
2022-12-11T16:53:01.099Z,-3.62
2022-12-11T16:55:30.277Z,-3.57
2022-12-11T16:57:57.156Z,-3.50
2022-12-11T17:00:23.883Z,-3.50
2022-12-11T17:02:50.532Z,-3.42
2022-12-11T17:05:16.972Z,-3.32
2022-12-11T17:07:43.358Z,-3.29
2022-12-11T17:10:10.070Z,-3.21
2022-12-11T17:12:36.462Z,-3.13
2022-12-11T17:15:03.370Z,-3.11
2022-12-11T17:17:29.806Z,-3.10
2022-12-11T17:19:56.383Z,-3.08
2022-12-11T17:22:22.890Z,-3.06
2022-12-11T17:24:51.569Z,-3.07
2022-12-11T17:27:18.198Z,-3.05
2022-12-11T17:29:44.610Z,-3.00
2022-12-11T17:32:11.023Z,-2.95
2022-12-11T17:34:38.683Z,-3.02
2022-12-11T17:37:07.749Z,-3.09
2022-12-11T17:39:34.440Z,-3.13
2022-12-11T17:42:01.932Z,-3.20
2022-12-11T17:44:28.547Z,-3.19
2022-12-11T17:46:55.961Z,-3.19
2022-12-11T17:49:22.511Z,-3.12
2022-12-11T17:51:49.082Z,-3.10
2022-12-11T17:54:15.530Z,-3.17
2022-12-11T17:56:41.916Z,-3.14
2022-12-11T17:59:08.664Z,-3.08
2022-12-11T18:01:37.953Z,-3.05
2022-12-11T18:04:05.310Z,-3.00
2022-12-11T18:06:31.705Z,-3.01
2022-12-11T18:08:58.292Z,-3.08
2022-12-11T18:11:25.221Z,-3.09
2022-12-11T18:13:52.634Z,-3.06
2022-12-11T18:16:19.189Z,-3.00
2022-12-11T18:18:45.766Z,-2.94
2022-12-11T18:21:12.148Z,-2.90
2022-12-11T18:23:38.908Z,-2.89
2022-12-11T18:26:05.480Z,-2.90
2022-12-11T18:28:32.195Z,-2.85
2022-12-11T18:30:59.279Z,-2.82
2022-12-11T18:33:25.692Z,-2.81
2022-12-11T18:35:52.087Z,-2.82
2022-12-11T18:38:18.443Z,-2.84
2022-12-11T18:40:44.776Z,-2.80
2022-12-11T18:43:11.415Z,-2.82
2022-12-11T18:45:37.997Z,-2.82
2022-12-11T18:48:04.374Z,-2.79
2022-12-11T18:50:31.229Z,-2.80
2022-12-11T18:52:57.789Z,-2.75
2022-12-11T18:55:24.177Z,-2.73
2022-12-11T18:57:50.642Z,-2.70
2022-12-11T19:00:17.365Z,-2.64
2022-12-11T19:02:43.723Z,-2.57
2022-12-11T19:05:10.370Z,-2.53
2022-12-11T19:07:37.123Z,-2.49
2022-12-11T19:10:03.519Z,-2.42
2022-12-11T19:12:30.197Z,-2.39
2022-12-11T19:14:56.575Z,-2.46
2022-12-11T19:17:23.570Z,-2.42
2022-12-11T19:19:50.157Z,-2.37
2022-12-11T19:22:17.199Z,-2.34
2022-12-11T19:24:44.696Z,-2.30
2022-12-11T19:27:13.702Z,-2.29
2022-12-11T19:29:42.361Z,-2.28
2022-12-11T19:32:08.824Z,-2.31
2022-12-11T19:34:35.215Z,-2.42
2022-12-11T19:37:01.711Z,-2.44
2022-12-11T19:39:28.163Z,-2.38
2022-12-11T19:41:55.204Z,-2.41
2022-12-11T19:44:21.670Z,-2.37
2022-12-11T19:46:48.329Z,-2.36
2022-12-11T19:49:14.788Z,-2.36
2022-12-11T19:51:41.137Z,-2.37
2022-12-11T19:54:07.505Z,-2.37
2022-12-11T19:56:36.319Z,-2.36
2022-12-11T19:59:03.063Z,-2.32
2022-12-11T20:01:29.437Z,-2.32
2022-12-11T20:03:56.173Z,-2.29
2022-12-11T20:06:23.963Z,-2.35
2022-12-11T20:08:51.427Z,-2.37
2022-12-11T20:11:18.933Z,-2.35
2022-12-11T20:13:45.594Z,-2.33
2022-12-11T20:16:13.127Z,-2.35
2022-12-11T20:18:39.595Z,-2.36
2022-12-11T20:21:06.010Z,-2.40
2022-12-11T20:23:32.488Z,-2.37
2022-12-11T20:25:59.147Z,-2.34
2022-12-11T20:28:25.615Z,-2.28
2022-12-11T20:30:52.197Z,-2.29
2022-12-11T20:33:18.681Z,-2.26
2022-12-11T20:35:45.058Z,-2.23
2022-12-11T20:38:11.410Z,-2.28
2022-12-11T20:40:37.862Z,-2.23
2022-12-11T20:43:04.307Z,-2.19
2022-12-11T20:45:33.135Z,-2.17
2022-12-11T20:47:59.585Z,-2.18
2022-12-11T20:50:31.262Z,-2.17
2022-12-11T20:52:57.607Z,-2.16
2022-12-11T20:55:25.409Z,-2.18
2022-12-11T20:57:52.005Z,-2.22
2022-12-11T21:00:18.564Z,-2.22
2022-12-11T21:02:45.028Z,-2.24
2022-12-11T21:05:11.772Z,-2.26
2022-12-11T21:07:38.363Z,-2.28
2022-12-11T21:10:05.994Z,-2.27
2022-12-11T21:12:32.569Z,-2.30
2022-12-11T21:14:59.001Z,-2.33
2022-12-11T21:17:25.589Z,-2.37
2022-12-11T21:19:51.984Z,-2.41
2022-12-11T21:22:18.861Z,-2.45
2022-12-11T21:24:45.314Z,-2.56
2022-12-11T21:27:11.688Z,-2.61
2022-12-11T21:29:38.451Z,-2.66
2022-12-11T21:32:04.875Z,-2.72
2022-12-11T21:34:31.361Z,-2.79
2022-12-11T21:36:57.751Z,-2.81
2022-12-11T21:39:24.176Z,-2.93
2022-12-11T21:41:50.516Z,-2.97
2022-12-11T21:47:03.420Z,-3.07
2022-12-11T21:49:30.364Z,-3.11
2022-12-11T21:51:57.070Z,-3.21
2022-12-11T21:54:24.735Z,-3.37
2022-12-11T21:56:51.107Z,-3.45
2022-12-11T21:59:17.454Z,-3.51
2022-12-11T22:01:43.805Z,-3.54
2022-12-11T22:04:10.322Z,-3.74
2022-12-11T22:06:36.721Z,-3.80
2022-12-11T22:09:03.122Z,-3.83
2022-12-11T22:11:29.506Z,-3.88
2022-12-11T22:13:56.337Z,-3.94
2022-12-11T22:16:22.765Z,-3.98
2022-12-11T22:18:49.174Z,-4.06
2022-12-11T22:21:16.227Z,-4.10
2022-12-11T22:23:42.918Z,-4.36
2022-12-11T22:26:09.277Z,-4.62
2022-12-11T22:28:36.634Z,-4.87
2022-12-11T22:31:03.283Z,-4.98
2022-12-11T22:33:31.707Z,-5.07
2022-12-11T22:35:58.700Z,-5.10
2022-12-11T22:38:25.312Z,-5.09
2022-12-11T22:40:51.718Z,-5.09
2022-12-11T22:43:18.070Z,-5.11
2022-12-11T22:45:44.530Z,-5.12
2022-12-11T22:48:11.120Z,-5.20
2022-12-11T22:50:37.467Z,-5.25
2022-12-11T22:53:04.068Z,-5.28
2022-12-11T22:55:30.696Z,-5.40
2022-12-11T22:57:57.142Z,-5.42
2022-12-11T23:00:25.120Z,-5.45
2022-12-11T23:02:51.580Z,-5.56
2022-12-11T23:05:18.214Z,-5.58
2022-12-11T23:07:44.710Z,-5.64
2022-12-11T23:10:11.104Z,-5.72
2022-12-11T23:12:37.506Z,-5.73
2022-12-11T23:15:03.949Z,-5.72
2022-12-11T23:17:30.290Z,-5.73
2022-12-11T23:19:56.673Z,-5.74
2022-12-11T23:22:23.068Z,-5.78
2022-12-11T23:24:50.545Z,-5.85
2022-12-11T23:27:17.011Z,-5.89
2022-12-11T23:29:43.391Z,-5.92
2022-12-11T23:32:09.783Z,-5.93
2022-12-11T23:34:36.135Z,-5.95
2022-12-11T23:37:04.055Z,-5.95
2022-12-11T23:39:30.679Z,-5.96
2022-12-11T23:41:57.009Z,-6.05
2022-12-11T23:44:23.356Z,-6.10
2022-12-11T23:46:49.730Z,-6.12
2022-12-11T23:49:16.108Z,-6.15
2022-12-11T23:51:43.242Z,-6.25
2022-12-11T23:54:09.573Z,-6.38
2022-12-11T23:56:36.117Z,-6.47
2022-12-11T23:59:02.477Z,-6.59
